createdAt,value
2018-11-21T00:00:17.702Z,26.80
2018-11-21T00:02:52.667Z,28.15
2018-11-21T00:07:58.788Z,29.48
2018-11-21T00:10:31.501Z,29.60
2018-11-21T00:13:04.529Z,25.75
2018-11-21T00:15:40.446Z,27.82
2018-11-21T00:18:15.624Z,28.83
2018-11-21T00:20:48.475Z,27.82
2018-11-21T00:23:23.190Z,27.42
2018-11-21T00:28:34.271Z,25.02
2018-11-21T00:33:47.586Z,24.32
2018-11-21T00:36:26.701Z,24.07
2018-11-21T00:38:59.351Z,25.30
2018-11-21T00:41:35.290Z,24.90
2018-11-21T00:44:10.132Z,26.82
2018-11-21T00:46:40.100Z,27.90
2018-11-21T00:49:14.911Z,24.90
2018-11-21T00:59:37.301Z,24.85
2018-11-21T01:02:09.847Z,29.00
2018-11-21T01:04:42.605Z,28.67
2018-11-21T01:07:17.566Z,25.80
2018-11-21T01:12:22.083Z,26.77
2018-11-21T01:14:53.208Z,25.65
2018-11-21T01:17:26.167Z,25.45
2018-11-21T01:19:58.892Z,26.65
2018-11-21T01:22:31.755Z,29.50
2018-11-21T01:25:01.286Z,27.60
2018-11-21T01:27:36.232Z,27.55
2018-11-21T01:30:07.267Z,27.35
2018-11-21T01:32:39.985Z,25.40
2018-11-21T01:35:09.709Z,24.60
2018-11-21T01:37:47.416Z,28.02
2018-11-21T01:43:04.873Z,25.35
2018-11-21T01:45:37.875Z,25.45
2018-11-21T01:48:11.254Z,25.20
2018-11-21T01:50:40.766Z,24.63
2018-11-21T01:53:14.055Z,26.02
2018-11-21T01:55:43.708Z,24.77
2018-11-21T01:58:18.296Z,26.17
2018-11-21T02:00:51.066Z,25.77
2018-11-21T02:03:29.687Z,23.52
2018-11-21T02:06:00.942Z,24.47
2018-11-21T02:08:34.155Z,26.60
2018-11-21T02:11:05.331Z,24.37
2018-11-21T02:13:40.111Z,26.62
2018-11-21T02:16:11.084Z,25.55
2018-11-21T02:18:44.383Z,25.90
2018-11-21T02:21:13.525Z,24.98
2018-11-21T02:23:46.549Z,25.52
2018-11-21T02:26:19.084Z,23.52
2018-11-21T02:28:51.775Z,22.62
2018-11-21T02:31:27.088Z,25.68
2018-11-21T02:33:55.661Z,25.43
2018-11-21T02:36:28.471Z,25.72
2018-11-21T02:41:46.440Z,23.50
2018-11-21T02:44:17.476Z,24.25
2018-11-21T02:46:53.386Z,27.90
2018-11-21T02:49:23.405Z,27.60
2018-11-21T02:52:00.830Z,27.50
2018-11-21T02:54:29.430Z,25.60
2018-11-21T02:57:23.375Z,25.32
2018-11-21T03:00:05.839Z,24.95
2018-11-21T03:02:37.652Z,26.40
2018-11-21T03:05:10.840Z,24.15
2018-11-21T03:10:24.469Z,26.45
2018-11-21T03:12:56.475Z,25.68
2018-11-21T03:15:30.131Z,25.43
2018-11-21T03:18:04.099Z,25.68
2018-11-21T03:20:41.649Z,25.30
2018-11-21T03:25:43.856Z,26.65
2018-11-21T03:30:42.050Z,28.17
2018-11-21T03:33:15.221Z,24.32
2018-11-21T03:38:18.463Z,26.97
2018-11-21T03:40:53.183Z,24.47
2018-11-21T03:45:56.895Z,22.90
2018-11-21T03:48:27.879Z,26.65
2018-11-21T03:51:02.745Z,22.17
2018-11-21T03:53:35.432Z,21.65
2018-11-21T03:56:08.593Z,22.95
2018-11-21T04:01:31.320Z,26.00
2018-11-21T04:04:02.372Z,25.05
2018-11-21T04:06:37.862Z,24.82
2018-11-21T04:11:46.420Z,22.82
2018-11-21T04:14:27.322Z,25.50
2018-11-21T04:17:00.254Z,23.73
2018-11-21T04:19:31.600Z,23.70
2018-11-21T04:22:05.144Z,24.23
2018-11-21T04:24:37.774Z,23.85
2018-11-21T04:27:11.108Z,26.00
2018-11-21T04:29:44.099Z,25.10
2018-11-21T04:32:17.406Z,25.52
2018-11-21T04:34:48.359Z,24.07
2018-11-21T04:37:21.378Z,26.70
2018-11-21T04:39:52.544Z,26.30
2018-11-21T04:42:25.888Z,25.20
2018-11-21T04:44:57.003Z,23.18
2018-11-21T04:47:34.008Z,24.15
2018-11-21T04:50:06.628Z,24.15
2018-11-21T04:52:40.391Z,22.90
2018-11-21T04:55:14.929Z,26.05
2018-11-21T04:58:03.345Z,25.08
2018-11-21T05:00:44.606Z,24.47
2018-11-21T05:03:15.644Z,25.65
2018-11-21T05:05:46.992Z,24.75
2018-11-21T05:08:28.928Z,26.37
2018-11-21T05:13:29.738Z,25.48
2018-11-21T05:16:04.676Z,24.52
2018-11-21T05:18:34.814Z,26.25
2018-11-21T05:21:08.196Z,25.20
2018-11-21T05:23:49.078Z,25.43
2018-11-21T05:26:22.350Z,24.43
2018-11-21T05:28:55.871Z,24.65
2018-11-21T05:31:26.961Z,25.82
2018-11-21T05:34:01.653Z,24.50
2018-11-21T05:36:31.314Z,25.95
2018-11-21T05:39:08.069Z,25.72
2018-11-21T05:41:56.478Z,28.73
2018-11-21T05:44:37.590Z,25.43
2018-11-21T05:47:10.170Z,25.30
2018-11-21T05:49:43.968Z,26.62
2018-11-21T05:52:13.492Z,24.98
2018-11-21T05:54:48.880Z,24.07
2018-11-21T05:57:18.249Z,26.17
2018-11-21T05:59:49.546Z,26.73
2018-11-21T06:07:33.096Z,26.65
2018-11-21T06:10:04.435Z,26.23
2018-11-21T06:12:37.498Z,33.08
2018-11-21T06:15:11.104Z,28.60
2018-11-21T06:17:48.095Z,26.80
2018-11-21T06:20:14.815Z,25.88
2018-11-21T06:22:46.625Z,25.30
2018-11-21T06:25:21.929Z,26.07
2018-11-21T06:36:01.830Z,26.10
2018-11-21T06:38:38.026Z,27.55
2018-11-21T06:41:16.300Z,25.05
2018-11-21T06:49:13.157Z,26.68
2018-11-21T06:54:32.570Z,25.88
2018-11-21T06:57:05.343Z,25.92
2018-11-21T07:02:28.757Z,27.35
2018-11-21T07:07:52.098Z,32.30
2018-11-21T07:10:33.938Z,28.12
2018-11-21T07:13:14.557Z,26.05
2018-11-21T07:15:55.654Z,27.98
2018-11-21T07:18:30.928Z,26.62
2018-11-21T07:23:41.774Z,31.87
2018-11-21T07:26:12.886Z,35.63
2018-11-21T07:28:44.185Z,31.02
2018-11-21T07:31:15.416Z,25.75
2018-11-21T07:33:48.093Z,26.45
2018-11-21T07:36:23.353Z,23.77
2018-11-21T07:41:26.099Z,28.07
2018-11-21T07:43:57.461Z,28.02
2018-11-21T07:46:30.864Z,25.40
2018-11-21T07:49:02.169Z,24.30
2018-11-21T07:51:35.490Z,23.95
2018-11-21T07:54:05.375Z,23.83
2018-11-21T07:57:22.665Z,24.90
2018-11-21T07:59:55.522Z,22.93
2018-11-21T08:02:37.652Z,22.50
2018-11-21T08:05:17.406Z,27.60
2018-11-21T08:07:44.899Z,25.37
2018-11-21T08:10:42.280Z,25.32
2018-11-21T08:13:43.678Z,23.67
2018-11-21T08:16:16.494Z,22.87
2018-11-21T08:22:13.738Z,22.65
2018-11-21T08:25:06.272Z,24.82
2018-11-21T08:27:56.924Z,22.70
2018-11-21T08:30:31.053Z,22.65
2018-11-21T08:33:04.094Z,21.27
2018-11-21T08:35:52.823Z,23.50
2018-11-21T08:38:33.377Z,22.50
2018-11-21T08:41:02.989Z,22.35
2018-11-21T08:43:36.163Z,21.55
2018-11-21T08:49:00.951Z,21.80
2018-11-21T08:51:49.372Z,24.75
2018-11-21T08:54:19.497Z,24.07
2018-11-21T08:56:54.924Z,25.35
2018-11-21T08:59:21.791Z,26.30
2018-11-21T09:01:55.116Z,26.52
2018-11-21T09:04:36.148Z,27.45
2018-11-21T09:07:17.130Z,26.05
2018-11-21T09:09:58.643Z,26.87
2018-11-21T09:12:39.480Z,24.75
2018-11-21T09:15:20.576Z,27.77
2018-11-21T09:17:53.822Z,24.15
2018-11-21T09:20:29.225Z,26.20
2018-11-21T09:23:00.210Z,26.05
2018-11-21T09:25:32.781Z,25.15
2018-11-21T09:28:02.555Z,28.67
2018-11-21T09:30:35.627Z,27.32
2018-11-21T09:33:08.312Z,26.35
2018-11-21T09:35:39.597Z,29.65
2018-11-21T09:38:12.351Z,25.32
2018-11-21T09:40:43.629Z,26.00
2018-11-21T09:43:12.771Z,24.77
2018-11-21T09:45:45.986Z,25.90
2018-11-21T09:48:15.367Z,26.50
2018-11-21T09:50:48.530Z,25.32
2018-11-21T09:53:19.525Z,27.60
2018-11-21T09:55:52.623Z,26.23
2018-11-21T09:58:22.039Z,28.25
2018-11-21T10:01:33.184Z,28.42
2018-11-21T10:04:04.333Z,27.02
2018-11-21T10:06:37.946Z,27.93
2018-11-21T10:09:09.858Z,26.55
2018-11-21T10:11:44.979Z,30.37
2018-11-21T10:16:46.590Z,28.10
2018-11-21T10:19:26.901Z,29.65
2018-11-21T10:24:28.131Z,30.02
2018-11-21T10:26:59.401Z,28.47
2018-11-21T10:32:22.883Z,27.87
2018-11-21T10:34:54.311Z,26.15
2018-11-21T10:37:27.033Z,28.60
2018-11-21T10:39:59.599Z,28.40
2018-11-21T10:42:38.813Z,24.95
2018-11-21T10:45:11.333Z,26.62
2018-11-21T10:47:43.831Z,26.12
2018-11-21T10:50:15.082Z,25.52
2018-11-21T10:52:47.902Z,26.33
2018-11-21T10:55:21.158Z,27.00
2018-11-21T10:57:58.257Z,25.50
2018-11-21T11:59:34.558Z,23.85
2018-11-21T13:09:40.091Z,24.23
2018-11-21T13:20:29.916Z,26.00
2018-11-21T13:23:03.001Z,27.37
2018-11-21T13:28:42.548Z,25.30
2018-11-21T13:31:36.815Z,26.95
2018-11-21T13:36:48.609Z,26.75
2018-11-21T13:39:41.231Z,26.37
2018-11-21T13:42:32.788Z,25.12
2018-11-21T13:45:22.679Z,26.82
2018-11-21T13:48:18.693Z,26.17
2018-11-21T13:51:13.167Z,26.30
2018-11-21T13:56:21.878Z,26.02
2018-11-21T13:58:59.112Z,25.48
2018-11-21T14:01:28.858Z,27.05
2018-11-21T14:04:10.191Z,26.93
2018-11-21T14:12:33.223Z,28.38
2018-11-21T14:15:09.011Z,27.85
2018-11-21T14:17:39.009Z,26.10
2018-11-21T14:20:13.174Z,25.70
2018-11-21T14:22:49.200Z,25.82
2018-11-21T14:25:22.694Z,26.55
2018-11-21T14:27:56.239Z,26.20
2018-11-21T14:33:24.531Z,26.73
2018-11-21T14:38:42.304Z,25.35
2018-11-21T14:41:18.392Z,26.25
2018-11-21T14:43:49.620Z,24.95
2018-11-21T14:46:33.113Z,26.87
2018-11-21T14:49:08.332Z,26.30
2018-11-21T15:05:18.864Z,26.48
2018-11-21T15:10:38.301Z,24.65
2018-11-21T15:13:10.857Z,24.45
2018-11-21T15:15:40.531Z,25.17
2018-11-21T15:18:21.083Z,24.00
2018-11-21T15:20:54.632Z,24.67
2018-11-21T15:23:38.878Z,23.38
2018-11-21T15:32:14.232Z,22.45
2018-11-21T15:34:52.794Z,24.37
2018-11-21T15:40:20.510Z,24.85
2018-11-21T15:48:03.290Z,24.52
2018-11-21T15:56:26.162Z,24.82
2018-11-21T16:46:55.594Z,23.38
2018-11-21T16:49:35.182Z,22.42
2018-11-21T16:52:09.107Z,23.40
2018-11-21T16:54:44.486Z,23.32
2018-11-21T16:57:20.445Z,24.57
2018-11-21T17:02:30.443Z,24.25
2018-11-21T17:10:54.154Z,21.10
2018-11-21T17:13:30.730Z,22.30
2018-11-21T17:16:01.198Z,22.22
2018-11-21T17:18:37.311Z,23.30
2018-11-21T17:21:07.354Z,22.55
2018-11-21T17:26:38.954Z,21.37
2018-11-21T17:31:56.436Z,25.02
2018-11-21T17:37:08.140Z,23.07
2018-11-21T17:42:41.337Z,22.60
2018-11-21T17:45:14.383Z,22.48
2018-11-21T17:47:45.509Z,20.27
2018-11-21T17:50:23.068Z,22.90
2018-11-21T17:52:52.850Z,21.90
2018-11-21T17:55:29.192Z,21.68
2018-11-21T17:58:00.637Z,22.22
2018-11-21T18:01:02.333Z,48.40
2018-11-21T18:03:35.871Z,23.05
2018-11-21T18:06:07.486Z,23.12
2018-11-21T18:08:36.389Z,25.45
2018-11-21T18:11:09.913Z,24.05
2018-11-21T18:13:40.982Z,22.17
2018-11-21T18:16:15.862Z,21.65
2018-11-21T18:21:28.076Z,20.68
2018-11-21T18:26:45.310Z,23.10
2018-11-21T18:29:18.216Z,22.50
2018-11-21T18:31:49.582Z,21.12
2018-11-21T18:34:30.664Z,21.95
2018-11-21T18:37:11.207Z,20.95
2018-11-21T18:39:52.315Z,22.22
2018-11-21T18:42:25.200Z,20.68
2018-11-21T18:44:54.939Z,20.02
2018-11-21T18:47:27.763Z,21.80
2018-11-21T18:49:59.007Z,20.05
2018-11-21T18:52:31.935Z,19.37
2018-11-21T18:55:01.344Z,21.33
2018-11-21T18:58:08.771Z,22.22
2018-11-21T19:00:37.755Z,24.18
2018-11-21T19:03:08.606Z,20.82
2018-11-21T19:05:39.934Z,23.30
2018-11-21T19:08:15.169Z,21.33
2018-11-21T19:10:46.982Z,20.60
2018-11-21T19:13:22.743Z,22.17
2018-11-21T19:15:52.196Z,21.23
2018-11-21T19:18:40.605Z,21.77
2018-11-21T19:21:21.802Z,22.40
2018-11-21T19:24:02.962Z,21.97
2018-11-21T19:29:27.321Z,20.95
2018-11-21T19:32:09.161Z,20.80
2018-11-21T19:34:50.340Z,21.77
2018-11-21T19:37:31.353Z,21.12
2018-11-21T19:40:00.768Z,23.75
2018-11-21T19:42:50.380Z,22.42
2018-11-21T19:45:32.101Z,27.93
2018-11-21T19:48:12.760Z,25.65
2018-11-21T19:53:30.010Z,23.22
2018-11-21T19:56:18.488Z,21.77
2018-11-21T19:58:59.364Z,20.10
2018-11-21T20:07:12.496Z,23.92
2018-11-21T20:09:43.726Z,22.00
2018-11-21T20:12:16.652Z,20.50
2018-11-21T20:14:46.967Z,21.68
2018-11-21T20:17:18.010Z,21.12
2018-11-21T20:19:50.814Z,20.37
2018-11-21T20:22:21.874Z,22.98
2018-11-21T20:24:54.945Z,19.95
2018-11-21T20:27:26.679Z,20.55
2018-11-21T20:32:57.795Z,18.62
2018-11-21T20:35:27.634Z,19.95
2018-11-21T20:48:50.514Z,21.57
2018-11-21T20:51:25.149Z,23.05
2018-11-21T20:59:15.111Z,22.30
2018-11-21T21:01:45.942Z,22.62
2018-11-21T21:04:20.910Z,22.35
2018-11-21T21:07:09.314Z,21.25
2018-11-21T21:09:50.518Z,23.27
2018-11-21T21:12:31.916Z,24.55
2018-11-21T21:15:13.265Z,26.85
2018-11-21T21:17:53.998Z,23.47
2018-11-21T21:20:35.385Z,23.05
2018-11-21T21:23:16.899Z,20.82
2018-11-21T21:25:46.349Z,22.62
2018-11-21T21:28:34.749Z,22.25
2018-11-21T21:31:16.334Z,21.65
2018-11-21T21:33:56.002Z,23.00
2018-11-21T21:36:37.171Z,23.27
2018-11-21T21:39:18.063Z,21.10
2018-11-21T21:41:59.344Z,21.15
2018-11-21T21:44:40.571Z,21.27
2018-11-21T21:47:21.401Z,21.07
2018-11-21T21:50:04.020Z,21.05
2018-11-21T21:52:45.389Z,20.57
2018-11-21T21:55:21.767Z,20.27
2018-11-21T21:58:10.965Z,19.45
2018-11-21T22:03:13.374Z,19.75
2018-11-21T22:08:37.717Z,19.48
2018-11-21T22:11:19.025Z,19.23
2018-11-21T22:13:59.759Z,18.82
2018-11-21T22:16:43.178Z,19.35
2018-11-21T22:19:24.314Z,19.10
2018-11-21T22:24:53.980Z,20.48
2018-11-21T22:27:36.459Z,17.60
2018-11-21T22:30:17.303Z,21.50
2018-11-21T22:32:48.162Z,21.12
2018-11-21T22:38:35.173Z,18.70
2018-11-21T22:41:17.665Z,19.52
2018-11-21T22:43:58.964Z,19.45
2018-11-21T22:46:28.376Z,20.10
2018-11-21T22:49:16.807Z,19.20
2018-11-21T22:52:05.670Z,20.23
2018-11-21T22:54:45.258Z,20.97
2018-11-21T22:57:27.154Z,20.43
2018-11-21T23:02:56.609Z,20.30
2018-11-21T23:05:38.152Z,20.77
2018-11-21T23:08:19.490Z,21.40
2018-11-21T23:10:49.194Z,22.07
2018-11-21T23:13:18.904Z,24.43
2018-11-21T23:16:07.362Z,21.62
2018-11-21T23:18:55.801Z,20.40
2018-11-21T23:21:36.910Z,21.17
2018-11-21T23:24:18.033Z,20.80
2018-11-21T23:26:59.424Z,23.22
2018-11-21T23:29:40.463Z,22.52
2018-11-21T23:32:21.637Z,21.52
2018-11-21T23:35:02.610Z,20.85
2018-11-21T23:37:43.806Z,21.42
2018-11-21T23:40:24.890Z,21.95
2018-11-21T23:46:01.473Z,22.60
2018-11-21T23:48:42.381Z,21.45
2018-11-21T23:51:23.455Z,22.75
2018-11-21T23:54:04.366Z,22.58
2018-11-21T23:57:06.794Z,22.00
2018-11-21T23:59:25.784Z,20.50
